Time;durP1;ratioP1;P1;durP2;ratioP2;P2;SDS_P1;SDS_P2;PMS_P1;PMS_P2;Temp;Humidity;BMP_temperature;BMP_pressure;BME280_temperature;BME280_humidity;BME280_pressure;Samples;Min_cycle;Max_cycle;Signal;HPM_P1;HPM_P2
2023/04/04 00:00:24;;;;;;;1.73;1.50;;;;;;;;;;5095586;28;20024;-81
2023/04/04 00:02:49;;;;;;;2.60;1.20;;;;;;;;;;5077565;28;20035;-81
2023/04/04 00:05:16;;;;;;;1.60;1.48;;;;;;;;;;5094961;28;20032;-82
2023/04/04 00:07:41;;;;;;;2.20;1.35;;;;;;;;;;5060463;28;20111;-81
2023/04/04 00:10:07;;;;;;;1.50;1.08;;;;;;;;;;5077181;28;20131;-81
2023/04/04 00:12:32;;;;;;;1.80;1.30;;;;;;;;;;5095585;28;20042;-80
2023/04/04 00:14:58;;;;;;;2.20;1.58;;;;;;;;;;5094848;28;20114;-81
2023/04/04 00:17:23;;;;;;;1.98;1.38;;;;;;;;;;5094765;28;20088;-81
2023/04/04 00:19:49;;;;;;;1.27;1.17;;;;;;;;;;5094731;28;20024;-81
2023/04/04 00:22:14;;;;;;;1.60;1.23;;;;;;;;;;5076870;28;20028;-80
2023/04/04 00:24:40;;;;;;;1.85;1.33;;;;;;;;;;5076484;28;20028;-81
2023/04/04 00:27:05;;;;;;;1.13;1.00;;;;;;;;;;5095070;28;20115;-82
2023/04/04 00:29:33;;;;;;;1.38;1.20;;;;;;;;;;5094834;28;20020;-80
2023/04/04 00:31:58;;;;;;;2.28;1.20;;;;;;;;;;5094655;28;20034;-81
2023/04/04 00:34:24;;;;;;;1.38;1.20;;;;;;;;;;5076648;28;20129;-81
2023/04/04 00:36:49;;;;;;;1.58;1.10;;;;;;;;;;5076400;28;20035;-81
2023/04/04 00:39:15;;;;;;;2.83;1.30;;;;;;;;;;5094704;28;20032;-80
2023/04/04 00:41:40;;;;;;;2.13;1.30;;;;;;;;;;5076896;28;20115;-80
2023/04/04 00:44:06;;;;;;;1.50;1.30;;;;;;;;;;5094478;28;20414;-81
2023/04/04 00:46:31;;;;;;;1.25;1.10;;;;;;;;;;5094849;28;20024;-81
2023/04/04 00:48:57;;;;;;;1.67;1.30;;;;;;;;;;5076177;28;20056;-82
2023/04/04 00:51:22;;;;;;;2.42;1.20;;;;;;;;;;5075821;28;20059;-81
2023/04/04 00:53:49;;;;;;;1.67;1.20;;;;;;;;;;5076167;28;20081;-80
2023/04/04 00:56:15;;;;;;;2.05;1.08;;;;;;;;;;5076039;28;20055;-81
2023/04/04 00:58:44;;;;;;;1.35;1.25;;;;;;;;;;5059165;28;20052;-80
2023/04/04 01:01:10;;;;;;;1.88;1.08;;;;;;;;;;5094308;28;20036;-80
2023/04/04 01:03:36;;;;;;;3.38;1.27;;;;;;;;;;5059136;28;20032;-80
2023/04/04 01:06:02;;;;;;;1.55;1.45;;;;;;;;;;5075846;28;20020;-80
2023/04/04 01:08:28;;;;;;;1.92;1.38;;;;;;;;;;5075657;28;20444;-81
2023/04/04 01:10:54;;;;;;;1.27;1.10;;;;;;;;;;5059169;28;20040;-80
2023/04/04 01:13:20;;;;;;;1.15;1.02;;;;;;;;;;5075971;28;20032;-80
2023/04/04 01:15:45;;;;;;;3.50;1.20;;;;;;;;;;5058257;28;20038;-80
2023/04/04 01:18:13;;;;;;;2.95;1.20;;;;;;;;;;5075951;28;20034;-80
2023/04/04 01:20:51;;;;;;;1.83;1.08;;;;;;;;;;5076000;28;20393;-80
2023/04/04 01:23:16;;;;;;;1.88;1.17;;;;;;;;;;5075737;28;20073;-80
2023/04/04 01:25:42;;;;;;;1.50;1.15;;;;;;;;;;5058729;28;20131;-81
2023/04/04 01:28:08;;;;;;;2.28;1.20;;;;;;;;;;5058663;28;20028;-81
2023/04/04 01:30:35;;;;;;;2.10;1.33;;;;;;;;;;5075825;28;20047;-81
2023/04/04 01:33:07;;;;;;;1.85;1.23;;;;;;;;;;5075570;28;20031;-81
2023/04/04 01:35:52;;;;;;;2.38;1.25;;;;;;;;;;5093366;28;20024;-82
2023/04/04 01:38:29;;;;;;;1.10;0.98;;;;;;;;;;5075252;28;20056;-82
2023/04/04 01:41:02;;;;;;;1.27;1.17;;;;;;;;;;5058624;28;20047;-81
2023/04/04 01:43:31;;;;;;;1.20;1.08;;;;;;;;;;5058600;28;20483;-82
2023/04/04 01:45:58;;;;;;;1.35;1.15;;;;;;;;;;5075081;28;20032;-81
2023/04/04 01:48:23;;;;;;;1.30;1.10;;;;;;;;;;5075153;28;20467;-81
2023/04/04 01:50:49;;;;;;;0.95;0.90;;;;;;;;;;5093145;28;20028;-81
2023/04/04 01:53:14;;;;;;;2.03;1.20;;;;;;;;;;5075015;28;20052;-81
2023/04/04 01:55:40;;;;;;;2.38;1.30;;;;;;;;;;5093291;28;20034;-81
2023/04/04 01:58:05;;;;;;;1.67;1.20;;;;;;;;;;5093130;28;20123;-81
2023/04/04 02:00:30;;;;;;;1.67;1.05;;;;;;;;;;5093163;28;20041;-80
2023/04/04 02:02:56;;;;;;;1.38;1.10;;;;;;;;;;5075368;28;20103;-81
2023/04/04 02:05:21;;;;;;;1.75;1.38;;;;;;;;;;5093072;28;20028;-82
2023/04/04 02:07:48;;;;;;;2.13;1.20;;;;;;;;;;5075445;28;20020;-82
2023/04/04 02:10:14;;;;;;;1.35;1.13;;;;;;;;;;5075480;28;20043;-82
2023/04/04 02:12:40;;;;;;;1.98;1.40;;;;;;;;;;5074858;28;20028;-80
2023/04/04 02:15:06;;;;;;;1.33;1.00;;;;;;;;;;5092992;28;20043;-81
2023/04/04 02:17:31;;;;;;;2.08;1.17;;;;;;;;;;5093376;28;20455;-80
2023/04/04 02:19:56;;;;;;;1.25;1.10;;;;;;;;;;5092898;28;20489;-80
2023/04/04 02:22:22;;;;;;;1.88;1.10;;;;;;;;;;5093175;28;20122;-80
2023/04/04 02:24:47;;;;;;;1.70;1.38;;;;;;;;;;5058144;28;20031;-79
2023/04/04 02:27:13;;;;;;;1.52;1.10;;;;;;;;;;5076434;28;20035;-80
2023/04/04 02:29:38;;;;;;;2.22;1.20;;;;;;;;;;5062095;28;20135;-80
2023/04/04 02:32:03;;;;;;;1.52;1.20;;;;;;;;;;5061904;28;20036;-81
2023/04/04 02:34:29;;;;;;;2.65;1.00;;;;;;;;;;5078621;28;20028;-80
2023/04/04 02:36:54;;;;;;;1.58;1.05;;;;;;;;;;5078554;28;20040;-81
2023/04/04 02:39:19;;;;;;;2.33;1.35;;;;;;;;;;5078610;28;20042;-81
2023/04/04 02:41:46;;;;;;;1.88;1.42;;;;;;;;;;5097276;28;20436;-80
2023/04/04 02:44:11;;;;;;;1.60;1.30;;;;;;;;;;5062267;28;20486;-81
2023/04/04 02:46:37;;;;;;;2.90;1.08;;;;;;;;;;5078476;28;20028;-81
2023/04/04 02:49:03;;;;;;;2.38;1.20;;;;;;;;;;5078524;28;20028;-80
2023/04/04 02:51:28;;;;;;;2.03;1.10;;;;;;;;;;5078402;28;20495;-82
2023/04/04 02:53:54;;;;;;;2.10;1.10;;;;;;;;;;5096799;28;20332;-81
2023/04/04 02:56:20;;;;;;;1.38;1.10;;;;;;;;;;5096605;28;20149;-81
2023/04/04 02:58:45;;;;;;;2.22;1.38;;;;;;;;;;5078022;28;20495;-81
2023/04/04 03:01:11;;;;;;;2.53;1.10;;;;;;;;;;5045213;28;20024;-81
2023/04/04 03:03:36;;;;;;;1.27;1.00;;;;;;;;;;5061600;28;20031;-80
2023/04/04 03:06:02;;;;;;;1.27;1.13;;;;;;;;;;5097199;28;20475;-80
2023/04/04 03:08:27;;;;;;;1.42;1.30;;;;;;;;;;5078141;28;20051;-80
2023/04/04 03:10:52;;;;;;;2.53;1.02;;;;;;;;;;5096496;28;20099;-81
2023/04/04 03:13:18;;;;;;;2.40;1.35;;;;;;;;;;5061769;28;20032;-80
2023/04/04 03:15:43;;;;;;;3.10;1.25;;;;;;;;;;5096159;28;20437;-80
2023/04/04 03:18:09;;;;;;;1.85;1.00;;;;;;;;;;5095949;28;20119;-80
2023/04/04 03:20:34;;;;;;;1.42;1.10;;;;;;;;;;5078209;28;20055;-81
2023/04/04 03:22:59;;;;;;;1.70;1.15;;;;;;;;;;5096115;28;20028;-80
2023/04/04 03:25:25;;;;;;;2.17;1.30;;;;;;;;;;5096725;28;20028;-80
2023/04/04 03:27:50;;;;;;;1.40;1.20;;;;;;;;;;5061451;28;20032;-80
2023/04/04 03:30:16;;;;;;;2.45;1.10;;;;;;;;;;5096143;28;20024;-80
2023/04/04 03:32:41;;;;;;;1.48;1.30;;;;;;;;;;5095884;28;20028;-80
2023/04/04 03:35:07;;;;;;;1.35;1.15;;;;;;;;;;5095640;28;20103;-81
2023/04/04 03:37:33;;;;;;;2.00;1.27;;;;;;;;;;5077833;28;20089;-79
2023/04/04 03:39:58;;;;;;;1.35;1.13;;;;;;;;;;5076914;28;20059;-81
2023/04/04 03:42:25;;;;;;;1.85;1.00;;;;;;;;;;5077247;28;20416;-81
2023/04/04 03:44:52;;;;;;;2.53;1.30;;;;;;;;;;5077840;28;20489;-82
2023/04/04 03:47:17;;;;;;;1.30;1.13;;;;;;;;;;5095433;28;20020;-80
2023/04/04 03:49:43;;;;;;;2.05;1.50;;;;;;;;;;5095718;28;20051;-82
2023/04/04 03:52:08;;;;;;;2.47;1.20;;;;;;;;;;5095233;28;20048;-82
2023/04/04 03:54:34;;;;;;;2.22;1.30;;;;;;;;;;5077282;28;20032;-83
2023/04/04 03:56:59;;;;;;;2.50;1.30;;;;;;;;;;5095559;28;20032;-85
2023/04/04 03:59:24;;;;;;;1.25;1.00;;;;;;;;;;5061034;28;20074;-83
2023/04/04 04:01:50;;;;;;;2.58;1.00;;;;;;;;;;5095472;28;20036;-83
2023/04/04 04:04:15;;;;;;;9.90;1.20;;;;;;;;;;5095604;28;20031;-86
2023/04/04 04:06:41;;;;;;;1.85;1.15;;;;;;;;;;5060772;28;20020;-81
2023/04/04 04:09:06;;;;;;;1.83;1.10;;;;;;;;;;5077423;28;20046;-81
2023/04/04 04:11:32;;;;;;;1.15;1.05;;;;;;;;;;5077877;28;20126;-83
2023/04/04 04:13:59;;;;;;;3.08;1.52;;;;;;;;;;5095358;28;20028;-82
2023/04/04 04:16:25;;;;;;;1.20;1.10;;;;;;;;;;5077100;28;20024;-82
2023/04/04 04:18:50;;;;;;;2.85;1.30;;;;;;;;;;5060560;28;20046;-82
2023/04/04 04:21:15;;;;;;;2.80;1.50;;;;;;;;;;5095329;28;20028;-83
2023/04/04 04:23:41;;;;;;;2.67;1.27;;;;;;;;;;5032316;28;20035;-81
2023/04/04 04:26:06;;;;;;;1.50;1.30;;;;;;;;;;5040227;28;20111;-83
2023/04/04 04:28:32;;;;;;;1.95;1.40;;;;;;;;;;5056752;28;20407;-81
2023/04/04 04:31:07;;;;;;;2.17;1.40;;;;;;;;;;5056531;28;20398;-80
2023/04/04 04:33:33;;;;;;;2.53;1.30;;;;;;;;;;5039691;28;20035;-81
2023/04/04 04:36:00;;;;;;;5.20;1.60;;;;;;;;;;5056631;28;20024;-77
2023/04/04 04:38:26;;;;;;;1.98;1.20;;;;;;;;;;5040075;28;20036;-78
2023/04/04 04:40:51;;;;;;;6.55;1.80;;;;;;;;;;5039927;28;20432;-78
2023/04/04 04:43:17;;;;;;;4.03;1.80;;;;;;;;;;5039759;28;20024;-78
2023/04/04 04:45:42;;;;;;;2.60;1.63;;;;;;;;;;5074338;28;20087;-78
2023/04/04 04:48:08;;;;;;;2.05;1.50;;;;;;;;;;5074522;28;20437;-78
2023/04/04 04:50:33;;;;;;;7.50;1.90;;;;;;;;;;5056566;28;20046;-79
2023/04/04 04:52:58;;;;;;;2.13;1.40;;;;;;;;;;5088803;28;20047;-78
2023/04/04 04:55:24;;;;;;;9.05;1.77;;;;;;;;;;5094317;28;20035;-78
2023/04/04 04:57:49;;;;;;;7.53;1.92;;;;;;;;;;5059462;28;20398;-76
2023/04/04 05:00:16;;;;;;;3.10;1.70;;;;;;;;;;5076107;28;20081;-81
2023/04/04 05:02:41;;;;;;;2.70;1.88;;;;;;;;;;5076368;28;20052;-82
2023/04/04 05:05:07;;;;;;;3.65;1.88;;;;;;;;;;5093935;28;20052;-81
2023/04/04 05:07:32;;;;;;;4.05;2.03;;;;;;;;;;5059238;28;20438;-82
2023/04/04 05:09:57;;;;;;;3.63;2.08;;;;;;;;;;5058988;28;20040;-81
2023/04/04 05:12:23;;;;;;;4.18;1.70;;;;;;;;;;5076637;28;20027;-79
2023/04/04 05:14:49;;;;;;;2.90;1.60;;;;;;;;;;5075956;28;20052;-80
2023/04/04 05:17:14;;;;;;;4.32;1.80;;;;;;;;;;5059186;28;20399;-80
2023/04/04 05:19:40;;;;;;;11.27;1.98;;;;;;;;;;5093763;28;20110;-79
2023/04/04 05:22:06;;;;;;;3.35;1.63;;;;;;;;;;5076108;28;20471;-79
2023/04/04 05:24:31;;;;;;;5.13;1.90;;;;;;;;;;5094214;28;20482;-79
2023/04/04 05:26:57;;;;;;;4.35;1.83;;;;;;;;;;5076024;28;20056;-79
2023/04/04 05:29:22;;;;;;;4.55;1.70;;;;;;;;;;5075661;28;20027;-79
2023/04/04 05:31:48;;;;;;;3.45;1.60;;;;;;;;;;5075551;28;20027;-79
2023/04/04 05:34:13;;;;;;;1.75;1.52;;;;;;;;;;5058992;28;20406;-79
2023/04/04 05:36:38;;;;;;;2.15;1.73;;;;;;;;;;5075934;28;20561;-79
2023/04/04 05:39:04;;;;;;;4.03;1.90;;;;;;;;;;5058637;28;20089;-79
2023/04/04 05:41:30;;;;;;;2.60;1.60;;;;;;;;;;5093854;28;20039;-79
2023/04/04 05:43:55;;;;;;;3.50;1.85;;;;;;;;;;5075854;28;20032;-79
2023/04/04 05:46:21;;;;;;;3.42;1.70;;;;;;;;;;5075477;28;20489;-79
2023/04/04 05:48:46;;;;;;;2.88;1.65;;;;;;;;;;5058774;28;20084;-79
2023/04/04 05:51:12;;;;;;;2.40;1.77;;;;;;;;;;5058608;28;20073;-79
2023/04/04 05:53:37;;;;;;;2.28;1.35;;;;;;;;;;5093731;28;20097;-79
2023/04/04 05:56:03;;;;;;;3.30;1.83;;;;;;;;;;5058831;28;20032;-79
2023/04/04 05:58:28;;;;;;;2.50;1.80;;;;;;;;;;5093664;28;20035;-79
2023/04/04 06:00:53;;;;;;;2.28;1.77;;;;;;;;;;5093622;28;20020;-79
2023/04/04 06:03:19;;;;;;;2.67;1.85;;;;;;;;;;5075235;28;20032;-79
2023/04/04 06:05:49;;;;;;;2.95;1.70;;;;;;;;;;5093679;28;20028;-79
2023/04/04 06:08:14;;;;;;;3.65;1.90;;;;;;;;;;5075432;28;20099;-79
2023/04/04 06:10:40;;;;;;;2.90;1.75;;;;;;;;;;5075485;28;20115;-79
2023/04/04 06:13:05;;;;;;;3.40;1.85;;;;;;;;;;5093911;28;20038;-79
2023/04/04 06:15:30;;;;;;;2.72;1.75;;;;;;;;;;5041697;28;20482;-79
2023/04/04 06:17:56;;;;;;;4.72;1.80;;;;;;;;;;5075097;28;20032;-79
2023/04/04 06:20:22;;;;;;;3.15;1.60;;;;;;;;;;5093253;28;20028;-80
2023/04/04 06:22:48;;;;;;;2.60;1.60;;;;;;;;;;5075003;28;20035;-79
2023/04/04 06:25:14;;;;;;;4.20;1.60;;;;;;;;;;5093578;28;20449;-79
2023/04/04 06:27:39;;;;;;;2.67;1.88;;;;;;;;;;5093057;28;20069;-79
2023/04/04 06:30:06;;;;;;;3.28;1.80;;;;;;;;;;5093273;28;20039;-79
2023/04/04 06:32:32;;;;;;;3.17;1.58;;;;;;;;;;5075136;28;20356;-79
2023/04/04 06:34:58;;;;;;;3.63;1.95;;;;;;;;;;5074880;28;20039;-79
2023/04/04 06:37:23;;;;;;;2.85;1.55;;;;;;;;;;5093467;28;20379;-79
2023/04/04 06:39:48;;;;;;;3.08;1.80;;;;;;;;;;5075013;28;20074;-79
2023/04/04 06:42:14;;;;;;;4.82;1.92;;;;;;;;;;5075023;28;20119;-79
2023/04/04 06:44:40;;;;;;;2.35;1.80;;;;;;;;;;5075049;28;20036;-80
2023/04/04 06:47:05;;;;;;;2.88;1.70;;;;;;;;;;5074896;28;20042;-80
2023/04/04 06:49:31;;;;;;;2.55;1.60;;;;;;;;;;5058625;28;20062;-80
2023/04/04 06:51:56;;;;;;;2.50;1.83;;;;;;;;;;5093054;28;20135;-80
2023/04/04 06:54:22;;;;;;;1.55;1.45;;;;;;;;;;5092891;28;20434;-79
2023/04/04 06:56:47;;;;;;;3.10;2.03;;;;;;;;;;5075134;28;20036;-79
2023/04/04 06:59:12;;;;;;;2.58;1.73;;;;;;;;;;5058419;28;20032;-79
2023/04/04 07:01:38;;;;;;;2.38;1.70;;;;;;;;;;5093479;28;20028;-79
2023/04/04 07:04:03;;;;;;;3.72;1.90;;;;;;;;;;5075195;28;20024;-79
2023/04/04 07:06:30;;;;;;;2.70;2.00;;;;;;;;;;5092591;28;20039;-80
2023/04/04 07:08:55;;;;;;;2.22;1.63;;;;;;;;;;5092545;28;20024;-79
2023/04/04 07:11:22;;;;;;;1.88;1.60;;;;;;;;;;5074528;28;20477;-80
2023/04/04 07:13:48;;;;;;;2.53;1.60;;;;;;;;;;5059123;28;20081;-80
2023/04/04 07:16:13;;;;;;;3.63;1.63;;;;;;;;;;5077803;28;20424;-80
2023/04/04 07:18:39;;;;;;;2.45;1.77;;;;;;;;;;5077747;28;20536;-80
2023/04/04 07:21:04;;;;;;;2.38;1.80;;;;;;;;;;5096170;28;20031;-80
2023/04/04 07:23:30;;;;;;;2.42;1.80;;;;;;;;;;5077930;28;20104;-80
2023/04/04 07:25:55;;;;;;;3.25;1.60;;;;;;;;;;5096691;28;20474;-79
2023/04/04 07:28:21;;;;;;;2.55;1.80;;;;;;;;;;5078423;28;20162;-80
2023/04/04 07:30:47;;;;;;;1.80;1.55;;;;;;;;;;5078599;28;20023;-79
2023/04/04 07:33:12;;;;;;;3.22;1.88;;;;;;;;;;5077866;28;20032;-80
2023/04/04 07:35:37;;;;;;;2.63;1.88;;;;;;;;;;5096030;28;20109;-79
2023/04/04 07:38:03;;;;;;;2.60;1.67;;;;;;;;;;5078026;28;20032;-79
2023/04/04 07:40:29;;;;;;;2.42;1.80;;;;;;;;;;5060982;28;20028;-79
2023/04/04 07:42:55;;;;;;;3.90;1.70;;;;;;;;;;5077967;28;20383;-80
2023/04/04 07:45:23;;;;;;;3.72;1.95;;;;;;;;;;5077755;28;20032;-79
2023/04/04 07:47:48;;;;;;;3.22;1.70;;;;;;;;;;5095955;28;20020;-80
2023/04/04 07:50:15;;;;;;;4.85;1.77;;;;;;;;;;5095507;28;20034;-80
2023/04/04 07:52:41;;;;;;;3.53;1.60;;;;;;;;;;5096455;28;20075;-79
2023/04/04 07:55:07;;;;;;;3.65;1.80;;;;;;;;;;5060949;28;20051;-80
2023/04/04 07:57:37;;;;;;;2.17;1.75;;;;;;;;;;5095559;28;20095;-80
2023/04/04 08:00:05;;;;;;;3.45;2.00;;;;;;;;;;5077572;28;20044;-79
2023/04/04 08:02:31;;;;;;;1.88;1.40;;;;;;;;;;5061032;28;20114;-79
2023/04/04 08:04:56;;;;;;;2.70;1.70;;;;;;;;;;5095919;28;20438;-80
2023/04/04 08:07:22;;;;;;;1.90;1.70;;;;;;;;;;5077585;28;20490;-80
2023/04/04 08:09:48;;;;;;;2.20;1.73;;;;;;;;;;5095583;28;20044;-80
2023/04/04 08:12:14;;;;;;;3.28;1.67;;;;;;;;;;5095734;28;20051;-80
2023/04/04 08:14:39;;;;;;;2.22;1.50;;;;;;;;;;5077209;28;20118;-79
2023/04/04 08:17:04;;;;;;;2.22;1.60;;;;;;;;;;5077041;28;20047;-79
2023/04/04 08:19:30;;;;;;;1.40;1.30;;;;;;;;;;5095233;28;20024;-79
2023/04/04 08:21:55;;;;;;;1.80;1.55;;;;;;;;;;5095401;28;20063;-79
2023/04/04 08:24:21;;;;;;;2.08;1.42;;;;;;;;;;5076814;28;20055;-79
2023/04/04 08:26:47;;;;;;;1.77;1.38;;;;;;;;;;5077077;28;20024;-79
2023/04/04 08:29:12;;;;;;;4.00;1.60;;;;;;;;;;5095144;28;20028;-79
2023/04/04 08:31:39;;;;;;;2.10;1.48;;;;;;;;;;5076924;28;20028;-79
2023/04/04 08:34:07;;;;;;;2.35;1.42;;;;;;;;;;5077210;28;20024;-80
2023/04/04 08:36:32;;;;;;;1.77;1.20;;;;;;;;;;5095695;28;20145;-78
2023/04/04 08:38:58;;;;;;;2.28;1.23;;;;;;;;;;5094861;28;20490;-79
2023/04/04 08:41:24;;;;;;;2.05;1.33;;;;;;;;;;5095239;28;20031;-79
2023/04/04 08:43:53;;;;;;;1.65;1.35;;;;;;;;;;5076811;28;20479;-79
2023/04/04 08:46:22;;;;;;;1.88;1.27;;;;;;;;;;5076704;28;20024;-80
2023/04/04 08:48:49;;;;;;;2.92;1.52;;;;;;;;;;5094815;28;20024;-80
2023/04/04 08:51:15;;;;;;;2.53;1.23;;;;;;;;;;5095081;28;20023;-79
2023/04/04 08:53:40;;;;;;;1.30;1.20;;;;;;;;;;5076352;28;20063;-79
2023/04/04 08:56:06;;;;;;;2.53;1.40;;;;;;;;;;5094281;28;20050;-79
2023/04/04 08:58:31;;;;;;;2.03;1.30;;;;;;;;;;5094540;28;20051;-79
2023/04/04 09:00:56;;;;;;;1.40;1.05;;;;;;;;;;5075951;28;20032;-79
2023/04/04 09:03:26;;;;;;;1.38;1.20;;;;;;;;;;5076211;28;20391;-79
2023/04/04 09:05:55;;;;;;;1.52;1.23;;;;;;;;;;5059356;28;20032;-79
2023/04/04 09:08:23;;;;;;;1.40;1.10;;;;;;;;;;5076175;28;20486;-79
2023/04/04 09:10:49;;;;;;;1.70;1.20;;;;;;;;;;5076163;28;20032;-79
2023/04/04 09:13:15;;;;;;;2.40;1.25;;;;;;;;;;5075827;28;20479;-78
2023/04/04 09:15:45;;;;;;;2.47;1.30;;;;;;;;;;5075844;28;20028;-79
2023/04/04 09:18:11;;;;;;;1.15;1.02;;;;;;;;;;5059101;28;20399;-78
2023/04/04 09:20:36;;;;;;;1.73;1.10;;;;;;;;;;5094318;28;20054;-80
2023/04/04 09:23:07;;;;;;;2.10;1.30;;;;;;;;;;5093912;28;20031;-80
2023/04/04 09:25:34;;;;;;;2.53;1.23;;;;;;;;;;5075821;28;20032;-79
2023/04/04 09:28:01;;;;;;;3.22;1.20;;;;;;;;;;5076028;28;20024;-79
2023/04/04 09:30:27;;;;;;;2.00;1.30;;;;;;;;;;5094313;28;20084;-80
2023/04/04 09:32:53;;;;;;;1.83;1.17;;;;;;;;;;5058758;28;20111;-79
2023/04/04 09:35:19;;;;;;;2.20;1.30;;;;;;;;;;5093669;28;20047;-79
2023/04/04 09:37:44;;;;;;;1.55;1.10;;;;;;;;;;5074811;28;20063;-79
2023/04/04 09:40:11;;;;;;;1.83;1.20;;;;;;;;;;5058874;28;20031;-79
2023/04/04 09:42:37;;;;;;;1.10;1.00;;;;;;;;;;5075962;28;20032;-78
2023/04/04 09:45:03;;;;;;;1.70;1.15;;;;;;;;;;5075435;28;20169;-79
2023/04/04 09:47:31;;;;;;;1.10;1.00;;;;;;;;;;5075410;28;20483;-79
2023/04/04 09:49:57;;;;;;;1.52;1.00;;;;;;;;;;5093755;28;20107;-79
2023/04/04 09:52:23;;;;;;;1.45;1.23;;;;;;;;;;5075562;28;20048;-79
2023/04/04 09:54:58;;;;;;;1.35;0.90;;;;;;;;;;5058543;28;20386;-79
2023/04/04 09:57:29;;;;;;;2.03;1.10;;;;;;;;;;5075445;28;20036;-79
2023/04/04 09:59:59;;;;;;;1.15;1.00;;;;;;;;;;5059425;28;20048;-79
2023/04/04 10:02:25;;;;;;;1.23;1.00;;;;;;;;;;5075461;28;20031;-79
2023/04/04 10:04:53;;;;;;;1.75;1.02;;;;;;;;;;5058586;28;20497;-79
2023/04/04 10:07:18;;;;;;;1.98;1.20;;;;;;;;;;5075062;28;20086;-79
2023/04/04 10:09:47;;;;;;;2.45;1.00;;;;;;;;;;5058608;28;20406;-79
2023/04/04 10:12:13;;;;;;;0.93;0.90;;;;;;;;;;5059289;28;20028;-79
2023/04/04 10:14:39;;;;;;;1.85;1.00;;;;;;;;;;5093182;28;20025;-79
2023/04/04 10:17:07;;;;;;;2.00;1.00;;;;;;;;;;5075160;28;20081;-78
2023/04/04 10:19:36;;;;;;;1.65;1.00;;;;;;;;;;5093025;28;20152;-78
2023/04/04 10:22:02;;;;;;;1.85;1.10;;;;;;;;;;5075306;28;20020;-78
2023/04/04 10:24:27;;;;;;;1.42;0.80;;;;;;;;;;5056780;28;20029;-79
2023/04/04 10:26:54;;;;;;;1.67;1.20;;;;;;;;;;5055035;28;20036;-79
2023/04/04 10:29:20;;;;;;;1.48;1.00;;;;;;;;;;5072556;28;20055;-78
2023/04/04 10:31:46;;;;;;;3.05;1.10;;;;;;;;;;5075264;28;20028;-79
2023/04/04 10:34:24;;;;;;;3.22;1.02;;;;;;;;;;5075012;28;20111;-79
2023/04/04 10:37:02;;;;;;;2.83;0.90;;;;;;;;;;5075024;28;20065;-81
2023/04/04 10:39:51;;;;;;;0.85;0.80;;;;;;;;;;5093133;28;20518;-80
2023/04/04 10:42:18;;;;;;;1.05;1.05;;;;;;;;;;5075158;28;20075;-78
2023/04/04 10:44:44;;;;;;;1.35;1.10;;;;;;;;;;5058089;28;20020;-80
2023/04/04 10:47:17;;;;;;;1.98;1.00;;;;;;;;;;5057742;28;20467;-81
2023/04/04 10:49:44;;;;;;;1.25;1.00;;;;;;;;;;5062154;28;20030;-79
2023/04/04 10:52:12;;;;;;;2.53;1.00;;;;;;;;;;5078826;28;20040;-79
2023/04/04 10:54:37;;;;;;;1.55;1.08;;;;;;;;;;5078830;28;20019;-80
2023/04/04 10:57:03;;;;;;;1.33;1.10;;;;;;;;;;5078656;28;20596;-80
2023/04/04 10:59:29;;;;;;;1.65;1.20;;;;;;;;;;5079414;28;20036;-81
2023/04/04 11:01:56;;;;;;;1.33;1.00;;;;;;;;;;5078772;28;20027;-80
2023/04/04 11:04:30;;;;;;;1.63;1.08;;;;;;;;;;5078783;28;20427;-81
2023/04/04 11:07:14;;;;;;;1.75;1.00;;;;;;;;;;5078488;28;20020;-81
2023/04/04 11:09:52;;;;;;;;;;;;;;;;;;5079083;28;20016;-79
2023/04/04 11:12:29;;;;;;;1.00;0.90;;;;;;;;;;5096841;28;20010;-80
2023/04/04 11:14:56;;;;;;;3.22;1.10;;;;;;;;;;5096903;28;20101;-79
2023/04/04 11:17:41;;;;;;;1.02;0.85;;;;;;;;;;5078562;28;20029;-79
2023/04/04 11:20:11;;;;;;;1.52;1.00;;;;;;;;;;5096331;28;20497;-80
2023/04/04 11:22:40;;;;;;;1.10;1.05;;;;;;;;;;5061347;28;20390;-80
2023/04/04 11:25:23;;;;;;;1.40;1.00;;;;;;;;;;5061500;28;20046;-81
2023/04/04 11:27:52;;;;;;;1.70;1.10;;;;;;;;;;5077935;28;20496;-80
2023/04/04 11:30:19;;;;;;;1.40;1.08;;;;;;;;;;5077967;28;20036;-80
2023/04/04 11:32:47;;;;;;;1.50;0.90;;;;;;;;;;5096139;28;20058;-80
2023/04/04 11:35:14;;;;;;;3.65;1.10;;;;;;;;;;5061145;28;20035;-78
2023/04/04 11:37:52;;;;;;;2.40;1.20;;;;;;;;;;5077781;28;20115;-78
2023/04/04 11:40:18;;;;;;;3.30;1.25;;;;;;;;;;5096247;28;20443;-78
2023/04/04 11:42:43;;;;;;;3.55;1.15;;;;;;;;;;5078147;28;20039;-78
2023/04/04 11:45:17;;;;;;;1.20;1.05;;;;;;;;;;5077713;28;20028;-78
2023/04/04 11:47:46;;;;;;;1.45;1.08;;;;;;;;;;5096127;28;20034;-78
2023/04/04 11:50:13;;;;;;;1.33;1.17;;;;;;;;;;5077435;28;20024;-80
2023/04/04 11:52:40;;;;;;;2.47;1.23;;;;;;;;;;5095732;28;20048;-80
2023/04/04 11:55:20;;;;;;;1.67;1.13;;;;;;;;;;5060660;28;20505;-80
2023/04/04 11:57:46;;;;;;;1.65;1.00;;;;;;;;;;5060781;28;20035;-80
2023/04/04 12:00:28;;;;;;;2.20;0.90;;;;;;;;;;5094804;28;20032;-79
2023/04/04 12:02:54;;;;;;;3.53;1.02;;;;;;;;;;5077626;28;20028;-79
2023/04/04 12:05:21;;;;;;;1.95;0.90;;;;;;;;;;5058289;28;20123;-79
2023/04/04 12:07:46;;;;;;;3.25;1.50;;;;;;;;;;5095493;28;20049;-79
2023/04/04 12:10:12;;;;;;;1.48;1.10;;;;;;;;;;5077623;28;20461;-79
2023/04/04 12:12:38;;;;;;;5.25;1.00;;;;;;;;;;5077796;28;20466;-79
2023/04/04 12:15:07;;;;;;;1.17;1.05;;;;;;;;;;5077562;28;20436;-79
2023/04/04 12:17:33;;;;;;;1.30;1.05;;;;;;;;;;5060366;28;20086;-79
2023/04/04 12:19:58;;;;;;;1.65;0.90;;;;;;;;;;5095168;28;20150;-79
2023/04/04 12:22:24;;;;;;;1.50;0.85;;;;;;;;;;5060259;28;20484;-80
2023/04/04 12:24:49;;;;;;;1.27;1.10;;;;;;;;;;5076800;28;20039;-80
2023/04/04 12:27:14;;;;;;;1.40;1.17;;;;;;;;;;5076895;28;20202;-79
2023/04/04 12:29:40;;;;;;;0.85;0.85;;;;;;;;;;5076777;28;20021;-79
2023/04/04 12:32:06;;;;;;;2.88;1.10;;;;;;;;;;5060193;28;20119;-79
2023/04/04 12:34:34;;;;;;;2.63;1.02;;;;;;;;;;5077155;28;20028;-78
2023/04/04 12:37:00;;;;;;;2.40;1.13;;;;;;;;;;5060107;28;20071;-79
2023/04/04 12:39:27;;;;;;;3.72;1.48;;;;;;;;;;5059945;28;20051;-79
2023/04/04 12:41:56;;;;;;;2.97;1.20;;;;;;;;;;5059765;28;20441;-79
2023/04/04 12:44:31;;;;;;;1.95;1.17;;;;;;;;;;5095011;28;20051;-79
2023/04/04 12:46:59;;;;;;;2.45;1.20;;;;;;;;;;5059905;28;20089;-78
2023/04/04 12:49:31;;;;;;;1.75;1.02;;;;;;;;;;5077020;28;20023;-79
2023/04/04 12:52:03;;;;;;;4.53;1.17;;;;;;;;;;5076702;28;20562;-79
2023/04/04 12:54:31;;;;;;;1.30;1.10;;;;;;;;;;5094275;28;20051;-79
2023/04/04 12:56:57;;;;;;;1.65;1.20;;;;;;;;;;5059594;28;20077;-79
2023/04/04 12:59:27;;;;;;;1.85;1.20;;;;;;;;;;5094512;28;20024;-78
2023/04/04 13:01:52;;;;;;;4.97;1.63;;;;;;;;;;5094517;28;20032;-78
2023/04/04 13:04:18;;;;;;;4.32;1.13;;;;;;;;;;5076141;28;20081;-78
2023/04/04 13:06:45;;;;;;;2.38;1.20;;;;;;;;;;5094484;28;20049;-78
2023/04/04 13:09:21;;;;;;;1.55;1.20;;;;;;;;;;5094074;28;20020;-78
2023/04/04 13:12:11;;;;;;;1.30;1.20;;;;;;;;;;5075473;28;20055;-79
2023/04/04 13:14:55;;;;;;;1.67;1.10;;;;;;;;;;5094100;28;20126;-79
2023/04/04 13:17:20;;;;;;;;;;;;;;;;;;5076936;28;20028;-77
2023/04/04 13:19:46;;;;;;;1.63;1.10;;;;;;;;;;5075624;28;19915;-80
2023/04/04 13:22:11;;;;;;;5.55;1.20;;;;;;;;;;5094263;28;20487;-79
2023/04/04 13:24:37;;;;;;;1.77;1.00;;;;;;;;;;5058219;28;20024;-79
2023/04/04 13:27:02;;;;;;;3.45;1.27;;;;;;;;;;5075177;28;20035;-79
2023/04/04 13:29:27;;;;;;;3.05;1.40;;;;;;;;;;5093034;28;20403;-79
2023/04/04 13:31:53;;;;;;;1.08;0.95;;;;;;;;;;5075109;28;20423;-79
2023/04/04 13:34:23;;;;;;;2.53;1.20;;;;;;;;;;5058320;28;20187;-78
2023/04/04 13:36:48;;;;;;;1.75;1.08;;;;;;;;;;5074881;28;20087;-80
2023/04/04 13:39:14;;;;;;;2.88;1.52;;;;;;;;;;5074613;28;20426;-80
2023/04/04 13:41:39;;;;;;;4.68;1.15;;;;;;;;;;5074979;28;20024;-79
2023/04/04 13:44:05;;;;;;;7.88;1.00;;;;;;;;;;5075172;28;20027;-80
2023/04/04 13:46:30;;;;;;;2.00;1.20;;;;;;;;;;5074732;28;20073;-80
2023/04/04 13:48:55;;;;;;;1.30;1.20;;;;;;;;;;5074939;28;20495;-80
2023/04/04 13:51:23;;;;;;;3.88;1.20;;;;;;;;;;5093209;28;20115;-80
2023/04/04 13:53:48;;;;;;;3.33;1.52;;;;;;;;;;5074485;28;20051;-80
2023/04/04 13:56:14;;;;;;;4.13;1.25;;;;;;;;;;5092892;28;20051;-79
2023/04/04 13:58:39;;;;;;;1.52;1.05;;;;;;;;;;5057794;28;20024;-80
2023/04/04 14:01:05;;;;;;;2.60;1.20;;;;;;;;;;5074904;28;20028;-78
2023/04/04 14:03:31;;;;;;;2.20;1.08;;;;;;;;;;5074867;28;20028;-77
2023/04/04 14:05:56;;;;;;;2.75;1.00;;;;;;;;;;5074906;28;20463;-78
2023/04/04 14:08:22;;;;;;;1.40;1.20;;;;;;;;;;5092106;28;20024;-78
2023/04/04 14:10:47;;;;;;;3.10;1.10;;;;;;;;;;5036968;28;20067;-79
2023/04/04 14:13:13;;;;;;;1.60;1.25;;;;;;;;;;5070323;28;20031;-78
2023/04/04 14:15:38;;;;;;;2.20;1.10;;;;;;;;;;5073662;28;20042;-78
2023/04/04 14:18:04;;;;;;;2.92;0.98;;;;;;;;;;5091737;28;20032;-79
2023/04/04 14:20:29;;;;;;;8.10;1.17;;;;;;;;;;5073587;28;20074;-78
2023/04/04 14:22:55;;;;;;;2.17;0.95;;;;;;;;;;5093150;28;20020;-78
2023/04/04 14:25:20;;;;;;;1.05;0.93;;;;;;;;;;5061334;28;20102;-77
2023/04/04 14:27:45;;;;;;;0.90;0.90;;;;;;;;;;5061570;28;20042;-79
2023/04/04 14:30:11;;;;;;;1.80;0.90;;;;;;;;;;5077957;28;20036;-78
2023/04/04 14:32:37;;;;;;;1.30;0.98;;;;;;;;;;5095758;28;20052;-79
2023/04/04 14:35:02;;;;;;;1.50;1.00;;;;;;;;;;5095894;28;20032;-79
2023/04/04 14:37:27;;;;;;;2.38;1.20;;;;;;;;;;5095507;28;20040;-78
2023/04/04 14:39:53;;;;;;;2.42;1.08;;;;;;;;;;5077121;28;20398;-79